sensor_id;sensor_type;location;lat;lon;timestamp;P1;durP1;ratioP1;P2;durP2;ratioP2
68680;SDS011;55836;49.858;6.756;2023-08-24T00:00:39;5.77;;;4.30;;
68680;SDS011;55836;49.858;6.756;2023-08-24T00:03:05;8.00;;;4.30;;
68680;SDS011;55836;49.858;6.756;2023-08-24T00:05:37;8.03;;;3.87;;
68680;SDS011;55836;49.858;6.756;2023-08-24T00:08:04;6.87;;;4.30;;
68680;SDS011;55836;49.858;6.756;2023-08-24T00:10:30;6.93;;;4.43;;
68680;SDS011;55836;49.858;6.756;2023-08-24T00:12:56;6.47;;;4.23;;
68680;SDS011;55836;49.858;6.756;2023-08-24T00:15:22;6.50;;;4.33;;
68680;SDS011;55836;49.858;6.756;2023-08-24T00:17:48;7.47;;;4.30;;
68680;SDS011;55836;49.858;6.756;2023-08-24T00:20:15;4.60;;;3.90;;
68680;SDS011;55836;49.858;6.756;2023-08-24T00:22:41;7.03;;;4.23;;
68680;SDS011;55836;49.858;6.756;2023-08-24T00:25:08;9.30;;;4.13;;
68680;SDS011;55836;49.858;6.756;2023-08-24T00:27:35;5.70;;;4.50;;
68680;SDS011;55836;49.858;6.756;2023-08-24T00:30:05;8.53;;;4.63;;
68680;SDS011;55836;49.858;6.756;2023-08-24T00:32:31;5.90;;;4.77;;
68680;SDS011;55836;49.858;6.756;2023-08-24T00:35:04;5.83;;;4.27;;
68680;SDS011;55836;49.858;6.756;2023-08-24T00:37:31;6.93;;;4.37;;
68680;SDS011;55836;49.858;6.756;2023-08-24T00:39:59;7.93;;;5.37;;
68680;SDS011;55836;49.858;6.756;2023-08-24T00:42:29;6.77;;;4.50;;
68680;SDS011;55836;49.858;6.756;2023-08-24T00:44:56;5.93;;;4.20;;
68680;SDS011;55836;49.858;6.756;2023-08-24T00:47:23;7.57;;;4.70;;
68680;SDS011;55836;49.858;6.756;2023-08-24T00:49:49;6.50;;;4.60;;
68680;SDS011;55836;49.858;6.756;2023-08-24T00:52:16;6.40;;;4.70;;
68680;SDS011;55836;49.858;6.756;2023-08-24T00:54:42;7.43;;;4.97;;
68680;SDS011;55836;49.858;6.756;2023-08-24T00:57:08;5.33;;;4.70;;
68680;SDS011;55836;49.858;6.756;2023-08-24T00:59:34;5.77;;;4.90;;
68680;SDS011;55836;49.858;6.756;2023-08-24T01:02:00;9.20;;;5.00;;
68680;SDS011;55836;49.858;6.756;2023-08-24T01:04:27;8.53;;;4.63;;
68680;SDS011;55836;49.858;6.756;2023-08-24T01:06:53;6.27;;;4.60;;
68680;SDS011;55836;49.858;6.756;2023-08-24T01:09:19;6.03;;;4.27;;
68680;SDS011;55836;49.858;6.756;2023-08-24T01:11:54;4.57;;;3.83;;
68680;SDS011;55836;49.858;6.756;2023-08-24T01:14:29;5.17;;;4.00;;
68680;SDS011;55836;49.858;6.756;2023-08-24T01:16:58;6.67;;;4.50;;
68680;SDS011;55836;49.858;6.756;2023-08-24T01:19:37;5.47;;;4.37;;
68680;SDS011;55836;49.858;6.756;2023-08-24T01:22:05;8.23;;;5.00;;
68680;SDS011;55836;49.858;6.756;2023-08-24T01:24:36;5.17;;;4.43;;
68680;SDS011;55836;49.858;6.756;2023-08-24T01:27:04;6.03;;;4.83;;
68680;SDS011;55836;49.858;6.756;2023-08-24T01:29:30;7.33;;;4.93;;
68680;SDS011;55836;49.858;6.756;2023-08-24T01:31:57;6.57;;;4.93;;
68680;SDS011;55836;49.858;6.756;2023-08-24T01:34:23;9.07;;;5.00;;
68680;SDS011;55836;49.858;6.756;2023-08-24T01:36:49;7.13;;;4.80;;
68680;SDS011;55836;49.858;6.756;2023-08-24T01:39:18;7.47;;;5.27;;
68680;SDS011;55836;49.858;6.756;2023-08-24T01:41:47;6.97;;;4.93;;
68680;SDS011;55836;49.858;6.756;2023-08-24T01:44:15;6.33;;;4.90;;
68680;SDS011;55836;49.858;6.756;2023-08-24T01:46:44;9.37;;;5.00;;
68680;SDS011;55836;49.858;6.756;2023-08-24T01:49:11;7.80;;;5.70;;
68680;SDS011;55836;49.858;6.756;2023-08-24T01:51:38;10.53;;;5.17;;
68680;SDS011;55836;49.858;6.756;2023-08-24T01:54:04;5.13;;;4.27;;
68680;SDS011;55836;49.858;6.756;2023-08-24T01:56:31;8.63;;;4.77;;
68680;SDS011;55836;49.858;6.756;2023-08-24T01:58:57;6.87;;;5.17;;
68680;SDS011;55836;49.858;6.756;2023-08-24T02:01:23;7.07;;;4.10;;
68680;SDS011;55836;49.858;6.756;2023-08-24T02:03:49;6.93;;;4.37;;
68680;SDS011;55836;49.858;6.756;2023-08-24T02:06:15;6.57;;;4.33;;
68680;SDS011;55836;49.858;6.756;2023-08-24T02:08:41;9.47;;;4.60;;
68680;SDS011;55836;49.858;6.756;2023-08-24T02:11:08;9.53;;;4.70;;
68680;SDS011;55836;49.858;6.756;2023-08-24T02:13:37;7.47;;;4.03;;
68680;SDS011;55836;49.858;6.756;2023-08-24T02:16:07;7.80;;;4.97;;
68680;SDS011;55836;49.858;6.756;2023-08-24T02:18:37;7.53;;;4.73;;
68680;SDS011;55836;49.858;6.756;2023-08-24T02:21:07;7.27;;;4.97;;
68680;SDS011;55836;49.858;6.756;2023-08-24T02:23:33;5.83;;;4.53;;
68680;SDS011;55836;49.858;6.756;2023-08-24T02:25:59;5.40;;;4.77;;
68680;SDS011;55836;49.858;6.756;2023-08-24T02:28:25;6.73;;;4.80;;
68680;SDS011;55836;49.858;6.756;2023-08-24T02:30:51;7.43;;;4.90;;
68680;SDS011;55836;49.858;6.756;2023-08-24T02:33:19;6.77;;;5.10;;
68680;SDS011;55836;49.858;6.756;2023-08-24T02:35:48;5.30;;;4.80;;
68680;SDS011;55836;49.858;6.756;2023-08-24T02:38:14;5.80;;;4.90;;
68680;SDS011;55836;49.858;6.756;2023-08-24T02:40:40;6.07;;;4.90;;
68680;SDS011;55836;49.858;6.756;2023-08-24T02:43:06;10.07;;;5.90;;
68680;SDS011;55836;49.858;6.756;2023-08-24T02:45:32;6.73;;;5.83;;
68680;SDS011;55836;49.858;6.756;2023-08-24T02:47:58;7.23;;;5.27;;
68680;SDS011;55836;49.858;6.756;2023-08-24T02:50:24;8.03;;;5.47;;
68680;SDS011;55836;49.858;6.756;2023-08-24T02:52:51;11.07;;;5.43;;
68680;SDS011;55836;49.858;6.756;2023-08-24T02:55:17;7.33;;;5.13;;
68680;SDS011;55836;49.858;6.756;2023-08-24T02:57:43;8.43;;;5.13;;
68680;SDS011;55836;49.858;6.756;2023-08-24T03:00:09;8.47;;;5.23;;
68680;SDS011;55836;49.858;6.756;2023-08-24T03:02:38;8.60;;;5.30;;
68680;SDS011;55836;49.858;6.756;2023-08-24T03:05:04;12.47;;;5.30;;
68680;SDS011;55836;49.858;6.756;2023-08-24T03:07:30;6.10;;;5.50;;
68680;SDS011;55836;49.858;6.756;2023-08-24T03:09:57;8.93;;;5.20;;
68680;SDS011;55836;49.858;6.756;2023-08-24T03:12:23;5.87;;;5.20;;
68680;SDS011;55836;49.858;6.756;2023-08-24T03:14:52;9.03;;;4.90;;
68680;SDS011;55836;49.858;6.756;2023-08-24T03:17:19;8.73;;;4.90;;
68680;SDS011;55836;49.858;6.756;2023-08-24T03:19:45;8.30;;;5.20;;
68680;SDS011;55836;49.858;6.756;2023-08-24T03:22:11;7.50;;;5.10;;
68680;SDS011;55836;49.858;6.756;2023-08-24T03:24:37;9.33;;;5.07;;
68680;SDS011;55836;49.858;6.756;2023-08-24T03:27:03;6.90;;;5.60;;
68680;SDS011;55836;49.858;6.756;2023-08-24T03:29:29;9.30;;;4.90;;
68680;SDS011;55836;49.858;6.756;2023-08-24T03:31:55;6.93;;;4.60;;
68680;SDS011;55836;49.858;6.756;2023-08-24T03:34:21;6.93;;;5.10;;
68680;SDS011;55836;49.858;6.756;2023-08-24T03:36:48;6.03;;;4.43;;
68680;SDS011;55836;49.858;6.756;2023-08-24T03:39:14;10.93;;;4.90;;
68680;SDS011;55836;49.858;6.756;2023-08-24T03:41:43;6.93;;;4.10;;
68680;SDS011;55836;49.858;6.756;2023-08-24T03:44:09;6.30;;;4.47;;
68680;SDS011;55836;49.858;6.756;2023-08-24T03:46:35;6.60;;;4.80;;
68680;SDS011;55836;49.858;6.756;2023-08-24T03:49:01;6.33;;;5.13;;
68680;SDS011;55836;49.858;6.756;2023-08-24T03:51:27;7.97;;;5.00;;
68680;SDS011;55836;49.858;6.756;2023-08-24T03:53:53;8.60;;;5.50;;
68680;SDS011;55836;49.858;6.756;2023-08-24T03:56:19;7.37;;;5.27;;
68680;SDS011;55836;49.858;6.756;2023-08-24T03:58:45;7.70;;;5.40;;
68680;SDS011;55836;49.858;6.756;2023-08-24T04:01:11;9.50;;;5.70;;
68680;SDS011;55836;49.858;6.756;2023-08-24T04:03:37;8.57;;;5.80;;
68680;SDS011;55836;49.858;6.756;2023-08-24T04:06:03;8.70;;;5.53;;
68680;SDS011;55836;49.858;6.756;2023-08-24T04:08:30;7.57;;;5.30;;
68680;SDS011;55836;49.858;6.756;2023-08-24T04:10:56;7.67;;;5.73;;
68680;SDS011;55836;49.858;6.756;2023-08-24T04:13:22;7.70;;;5.67;;
68680;SDS011;55836;49.858;6.756;2023-08-24T04:15:48;8.57;;;5.87;;
68680;SDS011;55836;49.858;6.756;2023-08-24T04:18:14;8.13;;;5.67;;
68680;SDS011;55836;49.858;6.756;2023-08-24T04:20:40;6.40;;;5.30;;
68680;SDS011;55836;49.858;6.756;2023-08-24T04:23:06;7.73;;;5.53;;
68680;SDS011;55836;49.858;6.756;2023-08-24T04:25:32;7.07;;;4.77;;
68680;SDS011;55836;49.858;6.756;2023-08-24T04:27:58;4.93;;;4.43;;
68680;SDS011;55836;49.858;6.756;2023-08-24T04:30:24;8.67;;;4.90;;
68680;SDS011;55836;49.858;6.756;2023-08-24T04:32:51;9.63;;;5.23;;
68680;SDS011;55836;49.858;6.756;2023-08-24T04:35:17;11.60;;;5.40;;
68680;SDS011;55836;49.858;6.756;2023-08-24T04:37:43;7.97;;;4.43;;
68680;SDS011;55836;49.858;6.756;2023-08-24T04:40:09;8.57;;;5.20;;
68680;SDS011;55836;49.858;6.756;2023-08-24T04:42:36;11.07;;;5.20;;
68680;SDS011;55836;49.858;6.756;2023-08-24T04:45:02;7.50;;;4.80;;
68680;SDS011;55836;49.858;6.756;2023-08-24T04:47:28;5.27;;;4.33;;
68680;SDS011;55836;49.858;6.756;2023-08-24T04:49:54;8.73;;;5.13;;
68680;SDS011;55836;49.858;6.756;2023-08-24T04:52:20;7.47;;;5.43;;
68680;SDS011;55836;49.858;6.756;2023-08-24T04:54:46;6.97;;;5.50;;
68680;SDS011;55836;49.858;6.756;2023-08-24T04:57:12;8.37;;;5.23;;
68680;SDS011;55836;49.858;6.756;2023-08-24T04:59:39;6.67;;;5.40;;
68680;SDS011;55836;49.858;6.756;2023-08-24T05:02:05;10.47;;;5.67;;
68680;SDS011;55836;49.858;6.756;2023-08-24T05:04:31;7.13;;;5.47;;
68680;SDS011;55836;49.858;6.756;2023-08-24T05:06:58;10.37;;;5.43;;
68680;SDS011;55836;49.858;6.756;2023-08-24T05:09:24;8.50;;;5.37;;
68680;SDS011;55836;49.858;6.756;2023-08-24T05:11:50;8.77;;;5.80;;
68680;SDS011;55836;49.858;6.756;2023-08-24T05:14:16;10.30;;;6.07;;
68680;SDS011;55836;49.858;6.756;2023-08-24T05:16:42;7.30;;;5.50;;
68680;SDS011;55836;49.858;6.756;2023-08-24T05:19:08;8.77;;;5.47;;
68680;SDS011;55836;49.858;6.756;2023-08-24T05:21:34;5.47;;;4.47;;
68680;SDS011;55836;49.858;6.756;2023-08-24T05:24:00;6.67;;;4.93;;
68680;SDS011;55836;49.858;6.756;2023-08-24T05:26:26;9.50;;;5.27;;
68680;SDS011;55836;49.858;6.756;2023-08-24T05:28:52;6.17;;;4.80;;
68680;SDS011;55836;49.858;6.756;2023-08-24T05:31:18;7.17;;;5.17;;
68680;SDS011;55836;49.858;6.756;2023-08-24T05:33:44;8.83;;;5.30;;
68680;SDS011;55836;49.858;6.756;2023-08-24T05:36:10;15.30;;;5.63;;
68680;SDS011;55836;49.858;6.756;2023-08-24T05:38:36;7.93;;;4.97;;
68680;SDS011;55836;49.858;6.756;2023-08-24T05:41:03;9.37;;;4.57;;
68680;SDS011;55836;49.858;6.756;2023-08-24T05:43:29;8.10;;;5.07;;
68680;SDS011;55836;49.858;6.756;2023-08-24T05:45:55;5.17;;;4.67;;
68680;SDS011;55836;49.858;6.756;2023-08-24T05:48:21;6.47;;;4.70;;
68680;SDS011;55836;49.858;6.756;2023-08-24T05:50:47;9.03;;;5.00;;
68680;SDS011;55836;49.858;6.756;2023-08-24T05:53:16;6.13;;;4.97;;
68680;SDS011;55836;49.858;6.756;2023-08-24T05:55:42;6.30;;;5.37;;
68680;SDS011;55836;49.858;6.756;2023-08-24T05:58:08;6.73;;;5.10;;
68680;SDS011;55836;49.858;6.756;2023-08-24T06:00:34;8.43;;;5.83;;
68680;SDS011;55836;49.858;6.756;2023-08-24T06:03:00;11.77;;;6.53;;
68680;SDS011;55836;49.858;6.756;2023-08-24T06:05:27;12.30;;;6.30;;
68680;SDS011;55836;49.858;6.756;2023-08-24T06:07:55;7.47;;;5.43;;
68680;SDS011;55836;49.858;6.756;2023-08-24T06:10:21;6.10;;;4.93;;
68680;SDS011;55836;49.858;6.756;2023-08-24T06:12:47;10.03;;;5.93;;
68680;SDS011;55836;49.858;6.756;2023-08-24T06:15:13;9.73;;;6.13;;
68680;SDS011;55836;49.858;6.756;2023-08-24T06:17:39;10.27;;;7.30;;
68680;SDS011;55836;49.858;6.756;2023-08-24T06:20:05;10.87;;;7.30;;
68680;SDS011;55836;49.858;6.756;2023-08-24T06:22:35;12.60;;;6.60;;
68680;SDS011;55836;49.858;6.756;2023-08-24T06:25:07;12.57;;;6.87;;
68680;SDS011;55836;49.858;6.756;2023-08-24T06:27:33;9.77;;;6.43;;
68680;SDS011;55836;49.858;6.756;2023-08-24T06:30:00;8.47;;;6.47;;
68680;SDS011;55836;49.858;6.756;2023-08-24T06:32:26;8.13;;;7.23;;
68680;SDS011;55836;49.858;6.756;2023-08-24T06:34:53;11.00;;;6.80;;
68680;SDS011;55836;49.858;6.756;2023-08-24T06:37:19;10.10;;;7.77;;
68680;SDS011;55836;49.858;6.756;2023-08-24T06:39:45;11.37;;;7.40;;
68680;SDS011;55836;49.858;6.756;2023-08-24T06:42:11;8.63;;;6.90;;
68680;SDS011;55836;49.858;6.756;2023-08-24T06:44:37;8.30;;;6.93;;
68680;SDS011;55836;49.858;6.756;2023-08-24T06:47:03;8.43;;;6.27;;
68680;SDS011;55836;49.858;6.756;2023-08-24T06:49:29;8.33;;;6.33;;
68680;SDS011;55836;49.858;6.756;2023-08-24T06:51:55;9.87;;;6.43;;
68680;SDS011;55836;49.858;6.756;2023-08-24T06:54:21;14.23;;;7.23;;
68680;SDS011;55836;49.858;6.756;2023-08-24T06:56:48;11.67;;;7.87;;
68680;SDS011;55836;49.858;6.756;2023-08-24T06:59:14;14.43;;;8.53;;
68680;SDS011;55836;49.858;6.756;2023-08-24T07:01:40;13.00;;;8.30;;
68680;SDS011;55836;49.858;6.756;2023-08-24T07:04:06;10.17;;;7.53;;
68680;SDS011;55836;49.858;6.756;2023-08-24T07:06:35;10.20;;;7.77;;
68680;SDS011;55836;49.858;6.756;2023-08-24T07:09:02;11.80;;;8.53;;
68680;SDS011;55836;49.858;6.756;2023-08-24T07:11:31;8.17;;;7.17;;
68680;SDS011;55836;49.858;6.756;2023-08-24T07:13:57;10.20;;;7.57;;
68680;SDS011;55836;49.858;6.756;2023-08-24T07:29:01;13.83;;;9.13;;
68680;SDS011;55836;49.858;6.756;2023-08-24T07:31:27;10.33;;;7.80;;
68680;SDS011;55836;49.858;6.756;2023-08-24T07:53:37;11.27;;;10.03;;
68680;SDS011;55836;49.858;6.756;2023-08-24T07:56:03;11.83;;;10.63;;
68680;SDS011;55836;49.858;6.756;2023-08-24T07:58:29;10.53;;;9.17;;
68680;SDS011;55836;49.858;6.756;2023-08-24T08:00:57;10.40;;;9.47;;
68680;SDS011;55836;49.858;6.756;2023-08-24T08:03:23;13.53;;;10.03;;
68680;SDS011;55836;49.858;6.756;2023-08-24T08:05:49;10.47;;;9.43;;
68680;SDS011;55836;49.858;6.756;2023-08-24T08:08:15;11.13;;;9.43;;
68680;SDS011;55836;49.858;6.756;2023-08-24T08:10:41;11.53;;;10.40;;
68680;SDS011;55836;49.858;6.756;2023-08-24T08:13:08;12.13;;;10.07;;
68680;SDS011;55836;49.858;6.756;2023-08-24T08:15:36;14.00;;;9.07;;
68680;SDS011;55836;49.858;6.756;2023-08-24T08:18:03;9.37;;;7.90;;
68680;SDS011;55836;49.858;6.756;2023-08-24T08:20:29;9.63;;;8.63;;
68680;SDS011;55836;49.858;6.756;2023-08-24T08:22:56;9.17;;;7.77;;
68680;SDS011;55836;49.858;6.756;2023-08-24T08:25:22;9.00;;;7.57;;
68680;SDS011;55836;49.858;6.756;2023-08-24T08:27:48;10.53;;;9.60;;
68680;SDS011;55836;49.858;6.756;2023-08-24T08:30:14;9.33;;;7.90;;
68680;SDS011;55836;49.858;6.756;2023-08-24T08:32:41;8.37;;;7.27;;
68680;SDS011;55836;49.858;6.756;2023-08-24T08:35:08;12.03;;;8.50;;
68680;SDS011;55836;49.858;6.756;2023-08-24T08:37:34;9.10;;;8.10;;
68680;SDS011;55836;49.858;6.756;2023-08-24T08:40:01;8.30;;;7.47;;
68680;SDS011;55836;49.858;6.756;2023-08-24T08:42:30;8.10;;;6.73;;
68680;SDS011;55836;49.858;6.756;2023-08-24T08:44:57;7.93;;;7.13;;
68680;SDS011;55836;49.858;6.756;2023-08-24T08:47:27;8.10;;;6.27;;
68680;SDS011;55836;49.858;6.756;2023-08-24T08:49:53;9.33;;;6.50;;
68680;SDS011;55836;49.858;6.756;2023-08-24T08:52:21;9.23;;;8.43;;
68680;SDS011;55836;49.858;6.756;2023-08-24T08:54:47;8.17;;;6.67;;
68680;SDS011;55836;49.858;6.756;2023-08-24T08:57:14;7.20;;;6.30;;
68680;SDS011;55836;49.858;6.756;2023-08-24T08:59:41;9.83;;;6.50;;
68680;SDS011;55836;49.858;6.756;2023-08-24T09:02:07;6.50;;;5.87;;
68680;SDS011;55836;49.858;6.756;2023-08-24T09:04:38;8.43;;;6.80;;
68680;SDS011;55836;49.858;6.756;2023-08-24T09:07:04;9.13;;;6.70;;
68680;SDS011;55836;49.858;6.756;2023-08-24T09:09:35;10.63;;;7.80;;
68680;SDS011;55836;49.858;6.756;2023-08-24T09:12:02;8.20;;;7.23;;
68680;SDS011;55836;49.858;6.756;2023-08-24T09:14:29;10.13;;;7.50;;
68680;SDS011;55836;49.858;6.756;2023-08-24T09:16:55;6.57;;;5.87;;
68680;SDS011;55836;49.858;6.756;2023-08-24T09:19:22;7.27;;;5.83;;
68680;SDS011;55836;49.858;6.756;2023-08-24T09:21:54;6.90;;;6.17;;
68680;SDS011;55836;49.858;6.756;2023-08-24T09:24:28;7.10;;;6.43;;
68680;SDS011;55836;49.858;6.756;2023-08-24T09:26:56;6.60;;;5.73;;
68680;SDS011;55836;49.858;6.756;2023-08-24T09:29:22;7.00;;;6.23;;
68680;SDS011;55836;49.858;6.756;2023-08-24T09:31:49;6.17;;;5.63;;
68680;SDS011;55836;49.858;6.756;2023-08-24T09:34:19;6.87;;;5.13;;
68680;SDS011;55836;49.858;6.756;2023-08-24T09:36:46;6.97;;;5.70;;
68680;SDS011;55836;49.858;6.756;2023-08-24T09:39:12;6.93;;;4.67;;
68680;SDS011;55836;49.858;6.756;2023-08-24T09:41:43;4.83;;;4.43;;
68680;SDS011;55836;49.858;6.756;2023-08-24T09:44:10;6.17;;;4.73;;
68680;SDS011;55836;49.858;6.756;2023-08-24T09:46:39;6.20;;;4.57;;
68680;SDS011;55836;49.858;6.756;2023-08-24T09:49:09;5.73;;;5.13;;
68680;SDS011;55836;49.858;6.756;2023-08-24T09:51:37;5.03;;;4.60;;
68680;SDS011;55836;49.858;6.756;2023-08-24T09:54:06;5.47;;;5.07;;
68680;SDS011;55836;49.858;6.756;2023-08-24T09:56:36;5.07;;;4.57;;
68680;SDS011;55836;49.858;6.756;2023-08-24T09:59:12;5.73;;;4.63;;
68680;SDS011;55836;49.858;6.756;2023-08-24T10:01:46;6.00;;;4.40;;
68680;SDS011;55836;49.858;6.756;2023-08-24T10:04:13;7.37;;;4.90;;
68680;SDS011;55836;49.858;6.756;2023-08-24T10:06:39;5.10;;;3.73;;
68680;SDS011;55836;49.858;6.756;2023-08-24T10:09:11;6.37;;;4.13;;
68680;SDS011;55836;49.858;6.756;2023-08-24T10:11:42;5.20;;;4.37;;
68680;SDS011;55836;49.858;6.756;2023-08-24T10:14:12;6.53;;;4.27;;
68680;SDS011;55836;49.858;6.756;2023-08-24T10:16:39;5.40;;;4.37;;
68680;SDS011;55836;49.858;6.756;2023-08-24T10:19:06;4.73;;;4.33;;
68680;SDS011;55836;49.858;6.756;2023-08-24T10:21:32;5.13;;;4.13;;
68680;SDS011;55836;49.858;6.756;2023-08-24T10:23:59;5.20;;;3.97;;
68680;SDS011;55836;49.858;6.756;2023-08-24T10:26:27;11.20;;;4.40;;
68680;SDS011;55836;49.858;6.756;2023-08-24T10:28:53;5.00;;;4.50;;
68680;SDS011;55836;49.858;6.756;2023-08-24T10:31:19;4.77;;;3.87;;
68680;SDS011;55836;49.858;6.756;2023-08-24T10:33:46;6.33;;;4.10;;
68680;SDS011;55836;49.858;6.756;2023-08-24T10:36:13;4.57;;;4.17;;
68680;SDS011;55836;49.858;6.756;2023-08-24T10:38:40;5.97;;;4.70;;
68680;SDS011;55836;49.858;6.756;2023-08-24T10:41:09;6.77;;;4.57;;
68680;SDS011;55836;49.858;6.756;2023-08-24T10:43:39;7.00;;;4.33;;
68680;SDS011;55836;49.858;6.756;2023-08-24T10:46:12;4.80;;;3.90;;
68680;SDS011;55836;49.858;6.756;2023-08-24T10:53:46;4.53;;;4.00;;
68680;SDS011;55836;49.858;6.756;2023-08-24T10:56:17;6.47;;;4.90;;
68680;SDS011;55836;49.858;6.756;2023-08-24T10:58:43;7.87;;;4.67;;
68680;SDS011;55836;49.858;6.756;2023-08-24T11:01:19;4.87;;;4.40;;
68680;SDS011;55836;49.858;6.756;2023-08-24T11:03:49;4.87;;;4.47;;
68680;SDS011;55836;49.858;6.756;2023-08-24T11:06:19;5.30;;;4.80;;
68680;SDS011;55836;49.858;6.756;2023-08-24T11:08:46;5.80;;;4.53;;
68680;SDS011;55836;49.858;6.756;2023-08-24T11:11:19;6.17;;;4.67;;
68680;SDS011;55836;49.858;6.756;2023-08-24T11:16:40;6.37;;;4.67;;
68680;SDS011;55836;49.858;6.756;2023-08-24T11:19:06;6.37;;;5.00;;
68680;SDS011;55836;49.858;6.756;2023-08-24T11:21:33;5.70;;;4.87;;
68680;SDS011;55836;49.858;6.756;2023-08-24T11:24:00;7.47;;;5.50;;
68680;SDS011;55836;49.858;6.756;2023-08-24T11:26:26;6.30;;;5.20;;
68680;SDS011;55836;49.858;6.756;2023-08-24T11:28:53;9.33;;;5.00;;
68680;SDS011;55836;49.858;6.756;2023-08-24T11:31:19;5.80;;;5.20;;
68680;SDS011;55836;49.858;6.756;2023-08-24T11:33:46;6.57;;;5.90;;
68680;SDS011;55836;49.858;6.756;2023-08-24T11:36:12;5.80;;;5.20;;
68680;SDS011;55836;49.858;6.756;2023-08-24T11:38:38;5.73;;;5.13;;
68680;SDS011;55836;49.858;6.756;2023-08-24T11:41:11;6.10;;;5.60;;
68680;SDS011;55836;49.858;6.756;2023-08-24T11:43:38;6.23;;;5.33;;
68680;SDS011;55836;49.858;6.756;2023-08-24T11:46:04;6.43;;;5.83;;
68680;SDS011;55836;49.858;6.756;2023-08-24T11:48:30;7.43;;;5.60;;
68680;SDS011;55836;49.858;6.756;2023-08-24T11:50:59;5.80;;;5.17;;
68680;SDS011;55836;49.858;6.756;2023-08-24T11:53:25;6.83;;;5.90;;
68680;SDS011;55836;49.858;6.756;2023-08-24T11:55:53;8.10;;;5.83;;
68680;SDS011;55836;49.858;6.756;2023-08-24T11:58:19;6.77;;;5.37;;
68680;SDS011;55836;49.858;6.756;2023-08-24T12:00:46;7.70;;;5.50;;
68680;SDS011;55836;49.858;6.756;2023-08-24T12:03:12;7.00;;;5.70;;
68680;SDS011;55836;49.858;6.756;2023-08-24T12:05:38;5.50;;;5.00;;
68680;SDS011;55836;49.858;6.756;2023-08-24T12:08:05;8.03;;;5.70;;
68680;SDS011;55836;49.858;6.756;2023-08-24T12:10:31;7.83;;;5.47;;
68680;SDS011;55836;49.858;6.756;2023-08-24T12:13:03;8.50;;;6.60;;
68680;SDS011;55836;49.858;6.756;2023-08-24T12:15:34;6.80;;;6.10;;
68680;SDS011;55836;49.858;6.756;2023-08-24T12:18:11;9.20;;;5.47;;
68680;SDS011;55836;49.858;6.756;2023-08-24T12:20:37;6.40;;;5.80;;
68680;SDS011;55836;49.858;6.756;2023-08-24T12:23:03;7.30;;;5.90;;
68680;SDS011;55836;49.858;6.756;2023-08-24T12:25:29;6.60;;;5.27;;
68680;SDS011;55836;49.858;6.756;2023-08-24T12:28:11;5.33;;;4.83;;
68680;SDS011;55836;49.858;6.756;2023-08-24T12:30:46;7.37;;;4.83;;
68680;SDS011;55836;49.858;6.756;2023-08-24T12:33:22;6.47;;;4.37;;
68680;SDS011;55836;49.858;6.756;2023-08-24T12:35:49;8.77;;;5.17;;
68680;SDS011;55836;49.858;6.756;2023-08-24T12:38:15;5.10;;;4.60;;
68680;SDS011;55836;49.858;6.756;2023-08-24T12:40:41;6.30;;;4.87;;
68680;SDS011;55836;49.858;6.756;2023-08-24T12:43:07;6.47;;;4.70;;
68680;SDS011;55836;49.858;6.756;2023-08-24T12:45:33;5.67;;;4.80;;
68680;SDS011;55836;49.858;6.756;2023-08-24T12:48:01;6.60;;;4.50;;
68680;SDS011;55836;49.858;6.756;2023-08-24T12:50:27;6.73;;;4.80;;
68680;SDS011;55836;49.858;6.756;2023-08-24T12:52:53;5.63;;;4.90;;
68680;SDS011;55836;49.858;6.756;2023-08-24T12:55:21;8.23;;;4.07;;
68680;SDS011;55836;49.858;6.756;2023-08-24T12:57:47;5.37;;;3.70;;
68680;SDS011;55836;49.858;6.756;2023-08-24T13:00:14;5.27;;;4.47;;
68680;SDS011;55836;49.858;6.756;2023-08-24T13:02:40;4.43;;;4.03;;
68680;SDS011;55836;49.858;6.756;2023-08-24T13:05:06;9.00;;;4.50;;
68680;SDS011;55836;49.858;6.756;2023-08-24T13:07:33;5.53;;;4.37;;
68680;SDS011;55836;49.858;6.756;2023-08-24T13:09:59;7.97;;;4.80;;
68680;SDS011;55836;49.858;6.756;2023-08-24T13:12:25;7.10;;;4.40;;
68680;SDS011;55836;49.858;6.756;2023-08-24T13:14:51;4.63;;;4.17;;
68680;SDS011;55836;49.858;6.756;2023-08-24T13:17:17;7.23;;;4.13;;
68680;SDS011;55836;49.858;6.756;2023-08-24T13:19:43;5.27;;;4.27;;
68680;SDS011;55836;49.858;6.756;2023-08-24T13:22:10;5.23;;;4.40;;
68680;SDS011;55836;49.858;6.756;2023-08-24T13:24:36;5.50;;;5.00;;
68680;SDS011;55836;49.858;6.756;2023-08-24T13:27:04;6.80;;;4.77;;
68680;SDS011;55836;49.858;6.756;2023-08-24T13:29:35;5.27;;;4.53;;
68680;SDS011;55836;49.858;6.756;2023-08-24T13:32:01;7.73;;;5.03;;
68680;SDS011;55836;49.858;6.756;2023-08-24T13:34:27;4.73;;;4.33;;
68680;SDS011;55836;49.858;6.756;2023-08-24T13:36:53;6.43;;;4.77;;
68680;SDS011;55836;49.858;6.756;2023-08-24T13:39:19;5.60;;;4.27;;
68680;SDS011;55836;49.858;6.756;2023-08-24T13:41:45;5.03;;;4.20;;
68680;SDS011;55836;49.858;6.756;2023-08-24T13:44:11;5.03;;;4.50;;
68680;SDS011;55836;49.858;6.756;2023-08-24T13:46:38;6.57;;;4.50;;
68680;SDS011;55836;49.858;6.756;2023-08-24T13:49:04;4.87;;;3.97;;
68680;SDS011;55836;49.858;6.756;2023-08-24T13:51:30;5.10;;;4.20;;
68680;SDS011;55836;49.858;6.756;2023-08-24T13:53:56;5.33;;;4.70;;
68680;SDS011;55836;49.858;6.756;2023-08-24T13:56:22;5.00;;;4.50;;
68680;SDS011;55836;49.858;6.756;2023-08-24T13:58:48;5.80;;;4.20;;
68680;SDS011;55836;49.858;6.756;2023-08-24T14:01:14;7.83;;;4.77;;
68680;SDS011;55836;49.858;6.756;2023-08-24T14:03:40;6.00;;;4.60;;
68680;SDS011;55836;49.858;6.756;2023-08-24T14:06:08;6.00;;;4.10;;
68680;SDS011;55836;49.858;6.756;2023-08-24T14:08:35;7.03;;;4.50;;
68680;SDS011;55836;49.858;6.756;2023-08-24T14:11:04;5.50;;;4.13;;
68680;SDS011;55836;49.858;6.756;2023-08-24T14:13:30;4.77;;;4.20;;
68680;SDS011;55836;49.858;6.756;2023-08-24T14:15:56;5.30;;;4.50;;
68680;SDS011;55836;49.858;6.756;2023-08-24T14:18:22;6.10;;;4.27;;
68680;SDS011;55836;49.858;6.756;2023-08-24T14:20:49;6.30;;;4.00;;
68680;SDS011;55836;49.858;6.756;2023-08-24T14:23:15;6.20;;;4.40;;
68680;SDS011;55836;49.858;6.756;2023-08-24T14:25:41;5.67;;;4.20;;
68680;SDS011;55836;49.858;6.756;2023-08-24T14:28:07;5.67;;;4.43;;
68680;SDS011;55836;49.858;6.756;2023-08-24T14:30:33;7.83;;;4.20;;
68680;SDS011;55836;49.858;6.756;2023-08-24T14:32:59;15.83;;;7.27;;
68680;SDS011;55836;49.858;6.756;2023-08-24T14:35:25;10.57;;;6.37;;
68680;SDS011;55836;49.858;6.756;2023-08-24T14:37:52;6.53;;;5.60;;
68680;SDS011;55836;49.858;6.756;2023-08-24T14:40:18;13.83;;;6.27;;
68680;SDS011;55836;49.858;6.756;2023-08-24T14:42:45;6.73;;;5.40;;
68680;SDS011;55836;49.858;6.756;2023-08-24T14:45:11;8.37;;;5.77;;
68680;SDS011;55836;49.858;6.756;2023-08-24T14:47:37;14.97;;;7.90;;
68680;SDS011;55836;49.858;6.756;2023-08-24T14:50:04;7.93;;;6.37;;
68680;SDS011;55836;49.858;6.756;2023-08-24T14:52:31;6.83;;;6.13;;
68680;SDS011;55836;49.858;6.756;2023-08-24T14:54:57;8.57;;;6.53;;
68680;SDS011;55836;49.858;6.756;2023-08-24T14:57:23;9.27;;;6.80;;
68680;SDS011;55836;49.858;6.756;2023-08-24T14:59:49;8.50;;;6.10;;
68680;SDS011;55836;49.858;6.756;2023-08-24T15:02:15;8.17;;;6.70;;
68680;SDS011;55836;49.858;6.756;2023-08-24T15:04:41;9.03;;;6.57;;
68680;SDS011;55836;49.858;6.756;2023-08-24T15:07:07;9.97;;;6.60;;
68680;SDS011;55836;49.858;6.756;2023-08-24T15:09:33;12.33;;;6.07;;
68680;SDS011;55836;49.858;6.756;2023-08-24T15:11:59;7.87;;;5.73;;
68680;SDS011;55836;49.858;6.756;2023-08-24T15:14:29;8.23;;;6.83;;
68680;SDS011;55836;49.858;6.756;2023-08-24T15:16:57;9.47;;;6.90;;
68680;SDS011;55836;49.858;6.756;2023-08-24T15:19:23;7.30;;;4.93;;
68680;SDS011;55836;49.858;6.756;2023-08-24T15:21:49;8.47;;;4.80;;
68680;SDS011;55836;49.858;6.756;2023-08-24T15:24:15;5.00;;;4.07;;